sensor_id;sensor_type;location;lat;lon;timestamp;temperature;humidity
3912;DHT22;1971;51.778;10.330;2022-10-23T00:02:21;8.40;1.00
3912;DHT22;1971;51.778;10.330;2022-10-23T00:04:52;8.40;1.00
3912;DHT22;1971;51.778;10.330;2022-10-23T00:07:22;8.30;1.00
3912;DHT22;1971;51.778;10.330;2022-10-23T00:09:53;8.30;1.00
3912;DHT22;1971;51.778;10.330;2022-10-23T00:12:23;8.30;1.00
3912;DHT22;1971;51.778;10.330;2022-10-23T00:14:54;8.40;1.00
3912;DHT22;1971;51.778;10.330;2022-10-23T00:17:27;8.60;1.00
3912;DHT22;1971;51.778;10.330;2022-10-23T00:19:59;8.50;1.00
3912;DHT22;1971;51.778;10.330;2022-10-23T00:22:29;8.60;1.00
3912;DHT22;1971;51.778;10.330;2022-10-23T00:24:59;8.70;1.00
3912;DHT22;1971;51.778;10.330;2022-10-23T00:27:29;8.70;1.00
3912;DHT22;1971;51.778;10.330;2022-10-23T00:30:00;8.70;1.00
3912;DHT22;1971;51.778;10.330;2022-10-23T00:32:33;8.60;1.00
3912;DHT22;1971;51.778;10.330;2022-10-23T00:35:05;8.50;1.00
3912;DHT22;1971;51.778;10.330;2022-10-23T00:37:35;8.40;1.00
3912;DHT22;1971;51.778;10.330;2022-10-23T00:40:07;8.40;1.00
3912;DHT22;1971;51.778;10.330;2022-10-23T00:42:37;8.50;1.00
3912;DHT22;1971;51.778;10.330;2022-10-23T00:45:13;8.50;1.00
3912;DHT22;1971;51.778;10.330;2022-10-23T00:47:46;8.60;1.00
3912;DHT22;1971;51.778;10.330;2022-10-23T00:50:17;8.60;1.00
3912;DHT22;1971;51.778;10.330;2022-10-23T00:52:50;8.70;1.00
3912;DHT22;1971;51.778;10.330;2022-10-23T00:55:24;8.70;1.00
3912;DHT22;1971;51.778;10.330;2022-10-23T00:57:55;8.70;1.00
3912;DHT22;1971;51.778;10.330;2022-10-23T01:00:28;9.10;1.80
3912;DHT22;1971;51.778;10.330;2022-10-23T01:03:01;8.80;2.70
3912;DHT22;1971;51.778;10.330;2022-10-23T01:05:37;8.70;1.00
3912;DHT22;1971;51.778;10.330;2022-10-23T01:08:17;8.80;6.60
3912;DHT22;1971;51.778;10.330;2022-10-23T01:10:53;8.70;1.00
3912;DHT22;1971;51.778;10.330;2022-10-23T01:13:34;8.60;1.00
3912;DHT22;1971;51.778;10.330;2022-10-23T01:16:12;8.70;1.00
3912;DHT22;1971;51.778;10.330;2022-10-23T01:18:50;8.70;1.00
3912;DHT22;1971;51.778;10.330;2022-10-23T01:21:27;8.60;1.00
3912;DHT22;1971;51.778;10.330;2022-10-23T01:24:11;8.50;1.00
3912;DHT22;1971;51.778;10.330;2022-10-23T01:26:57;8.50;1.00
3912;DHT22;1971;51.778;10.330;2022-10-23T01:29:35;8.50;1.00
3912;DHT22;1971;51.778;10.330;2022-10-23T01:32:11;8.60;1.00
3912;DHT22;1971;51.778;10.330;2022-10-23T01:34:45;8.50;1.00
3912;DHT22;1971;51.778;10.330;2022-10-23T01:37:22;8.40;1.00
3912;DHT22;1971;51.778;10.330;2022-10-23T01:40:01;8.40;1.00
3912;DHT22;1971;51.778;10.330;2022-10-23T01:42:38;8.60;1.00
3912;DHT22;1971;51.778;10.330;2022-10-23T01:45:17;8.50;1.00
3912;DHT22;1971;51.778;10.330;2022-10-23T01:47:48;8.40;1.00
3912;DHT22;1971;51.778;10.330;2022-10-23T01:50:20;8.60;7.70
3912;DHT22;1971;51.778;10.330;2022-10-23T01:52:59;8.70;24.00
3912;DHT22;1971;51.778;10.330;2022-10-23T01:55:30;8.80;31.80
3912;DHT22;1971;51.778;10.330;2022-10-23T01:58:03;8.70;36.60
3912;DHT22;1971;51.778;10.330;2022-10-23T02:00:42;8.80;37.40
3912;DHT22;1971;51.778;10.330;2022-10-23T02:03:15;8.60;34.20
3912;DHT22;1971;51.778;10.330;2022-10-23T02:05:46;8.70;42.40
3912;DHT22;1971;51.778;10.330;2022-10-23T02:08:16;8.60;42.70
3912;DHT22;1971;51.778;10.330;2022-10-23T02:10:53;8.60;32.30
3912;DHT22;1971;51.778;10.330;2022-10-23T02:13:33;8.50;23.90
3912;DHT22;1971;51.778;10.330;2022-10-23T02:16:20;8.50;22.40
3912;DHT22;1971;51.778;10.330;2022-10-23T02:19:00;8.60;19.60
3912;DHT22;1971;51.778;10.330;2022-10-23T02:21:37;8.60;15.10
3912;DHT22;1971;51.778;10.330;2022-10-23T02:24:10;8.50;4.40
3912;DHT22;1971;51.778;10.330;2022-10-23T02:26:49;8.60;3.90
3912;DHT22;1971;51.778;10.330;2022-10-23T02:29:25;8.70;1.30
3912;DHT22;1971;51.778;10.330;2022-10-23T02:32:01;8.40;1.00
3912;DHT22;1971;51.778;10.330;2022-10-23T02:34:31;8.60;1.00
3912;DHT22;1971;51.778;10.330;2022-10-23T02:37:02;8.40;1.00
3912;DHT22;1971;51.778;10.330;2022-10-23T02:39:32;8.40;5.20
3912;DHT22;1971;51.778;10.330;2022-10-23T02:42:07;8.40;2.90
3912;DHT22;1971;51.778;10.330;2022-10-23T02:44:53;8.50;8.40
3912;DHT22;1971;51.778;10.330;2022-10-23T02:47:37;8.50;3.20
3912;DHT22;1971;51.778;10.330;2022-10-23T02:50:20;8.60;3.50
3912;DHT22;1971;51.778;10.330;2022-10-23T02:52:58;8.30;1.00
3912;DHT22;1971;51.778;10.330;2022-10-23T02:55:39;8.20;1.00
3912;DHT22;1971;51.778;10.330;2022-10-23T02:58:18;8.20;1.00
3912;DHT22;1971;51.778;10.330;2022-10-23T03:00:54;8.00;1.00
3912;DHT22;1971;51.778;10.330;2022-10-23T03:03:31;7.90;1.00
3912;DHT22;1971;51.778;10.330;2022-10-23T03:06:05;7.90;1.00
3912;DHT22;1971;51.778;10.330;2022-10-23T03:08:42;8.00;1.00
3912;DHT22;1971;51.778;10.330;2022-10-23T03:11:12;8.00;1.00
3912;DHT22;1971;51.778;10.330;2022-10-23T03:13:43;8.10;1.00
3912;DHT22;1971;51.778;10.330;2022-10-23T03:16:13;8.10;1.00
3912;DHT22;1971;51.778;10.330;2022-10-23T03:18:51;8.00;1.00
3912;DHT22;1971;51.778;10.330;2022-10-23T03:21:22;7.80;1.00
3912;DHT22;1971;51.778;10.330;2022-10-23T03:23:52;7.80;1.00
3912;DHT22;1971;51.778;10.330;2022-10-23T03:26:32;7.80;1.00
3912;DHT22;1971;51.778;10.330;2022-10-23T03:29:03;7.50;1.00
3912;DHT22;1971;51.778;10.330;2022-10-23T03:31:40;7.30;1.00
3912;DHT22;1971;51.778;10.330;2022-10-23T03:34:12;7.50;1.00
3912;DHT22;1971;51.778;10.330;2022-10-23T03:36:42;7.20;1.00
3912;DHT22;1971;51.778;10.330;2022-10-23T03:39:13;7.20;1.00
3912;DHT22;1971;51.778;10.330;2022-10-23T03:41:43;7.20;1.00
3912;DHT22;1971;51.778;10.330;2022-10-23T03:44:16;7.20;1.00
3912;DHT22;1971;51.778;10.330;2022-10-23T03:46:46;7.20;1.00
3912;DHT22;1971;51.778;10.330;2022-10-23T03:49:19;7.20;1.00
3912;DHT22;1971;51.778;10.330;2022-10-23T03:51:49;7.30;1.00
3912;DHT22;1971;51.778;10.330;2022-10-23T03:54:22;7.30;1.00
3912;DHT22;1971;51.778;10.330;2022-10-23T03:56:53;7.30;1.00
3912;DHT22;1971;51.778;10.330;2022-10-23T03:59:25;7.20;1.00
3912;DHT22;1971;51.778;10.330;2022-10-23T04:01:55;7.10;1.00
3912;DHT22;1971;51.778;10.330;2022-10-23T04:04:29;6.90;1.00
3912;DHT22;1971;51.778;10.330;2022-10-23T04:06:59;6.80;1.00
3912;DHT22;1971;51.778;10.330;2022-10-23T04:09:29;6.70;1.00
3912;DHT22;1971;51.778;10.330;2022-10-23T04:12:02;6.80;1.00
3912;DHT22;1971;51.778;10.330;2022-10-23T04:14:33;6.90;1.00
3912;DHT22;1971;51.778;10.330;2022-10-23T04:17:03;7.30;1.00
3912;DHT22;1971;51.778;10.330;2022-10-23T04:19:36;7.00;1.00
3912;DHT22;1971;51.778;10.330;2022-10-23T04:22:06;6.90;1.00
3912;DHT22;1971;51.778;10.330;2022-10-23T04:24:36;7.20;1.00
3912;DHT22;1971;51.778;10.330;2022-10-23T04:27:16;7.00;1.00
3912;DHT22;1971;51.778;10.330;2022-10-23T04:29:47;7.00;1.00
3912;DHT22;1971;51.778;10.330;2022-10-23T04:32:23;7.00;1.00
3912;DHT22;1971;51.778;10.330;2022-10-23T04:34:55;7.00;1.00
3912;DHT22;1971;51.778;10.330;2022-10-23T04:37:26;7.00;1.00
3912;DHT22;1971;51.778;10.330;2022-10-23T04:39:59;7.10;1.00
3912;DHT22;1971;51.778;10.330;2022-10-23T04:42:33;7.10;1.00
3912;DHT22;1971;51.778;10.330;2022-10-23T04:45:04;6.80;1.00
3912;DHT22;1971;51.778;10.330;2022-10-23T04:47:35;6.70;1.00
3912;DHT22;1971;51.778;10.330;2022-10-23T04:50:08;6.80;1.00
3912;DHT22;1971;51.778;10.330;2022-10-23T04:52:57;6.80;1.00
3912;DHT22;1971;51.778;10.330;2022-10-23T04:55:54;7.00;1.00
3912;DHT22;1971;51.778;10.330;2022-10-23T04:58:36;6.90;1.00
3912;DHT22;1971;51.778;10.330;2022-10-23T05:01:07;7.10;1.00
3912;DHT22;1971;51.778;10.330;2022-10-23T05:03:37;7.00;1.00
3912;DHT22;1971;51.778;10.330;2022-10-23T05:06:10;6.80;1.00
3912;DHT22;1971;51.778;10.330;2022-10-23T05:09:04;6.70;1.00
3912;DHT22;1971;51.778;10.330;2022-10-23T05:11:55;6.60;1.00
3912;DHT22;1971;51.778;10.330;2022-10-23T05:14:25;6.60;1.00
3912;DHT22;1971;51.778;10.330;2022-10-23T05:16:59;6.80;1.00
3912;DHT22;1971;51.778;10.330;2022-10-23T05:19:35;6.60;1.00
3912;DHT22;1971;51.778;10.330;2022-10-23T05:22:11;6.90;1.00
3912;DHT22;1971;51.778;10.330;2022-10-23T05:24:48;6.80;1.00
3912;DHT22;1971;51.778;10.330;2022-10-23T05:27:23;7.10;1.00
3912;DHT22;1971;51.778;10.330;2022-10-23T05:29:55;7.00;1.00
3912;DHT22;1971;51.778;10.330;2022-10-23T05:32:30;7.00;1.00
3912;DHT22;1971;51.778;10.330;2022-10-23T05:35:06;7.10;1.00
3912;DHT22;1971;51.778;10.330;2022-10-23T05:37:43;6.90;1.00
3912;DHT22;1971;51.778;10.330;2022-10-23T05:40:19;7.00;1.00
3912;DHT22;1971;51.778;10.330;2022-10-23T05:42:55;7.10;1.00
3912;DHT22;1971;51.778;10.330;2022-10-23T05:45:44;7.10;1.00
3912;DHT22;1971;51.778;10.330;2022-10-23T05:48:23;6.90;1.00
3912;DHT22;1971;51.778;10.330;2022-10-23T05:51:20;7.00;1.00
3912;DHT22;1971;51.778;10.330;2022-10-23T05:54:14;7.00;1.00
3912;DHT22;1971;51.778;10.330;2022-10-23T05:56:55;6.90;1.00
3912;DHT22;1971;51.778;10.330;2022-10-23T05:59:42;6.80;1.00
3912;DHT22;1971;51.778;10.330;2022-10-23T06:02:39;7.10;1.00
3912;DHT22;1971;51.778;10.330;2022-10-23T06:05:29;6.90;1.00
3912;DHT22;1971;51.778;10.330;2022-10-23T06:08:20;6.80;1.00
3912;DHT22;1971;51.778;10.330;2022-10-23T06:10:54;6.90;1.00
3912;DHT22;1971;51.778;10.330;2022-10-23T06:13:25;6.80;1.00
3912;DHT22;1971;51.778;10.330;2022-10-23T06:15:55;6.90;1.00
3912;DHT22;1971;51.778;10.330;2022-10-23T06:18:25;7.00;1.00
3912;DHT22;1971;51.778;10.330;2022-10-23T06:21:03;7.10;1.00
3912;DHT22;1971;51.778;10.330;2022-10-23T06:23:35;7.10;1.00
3912;DHT22;1971;51.778;10.330;2022-10-23T06:26:31;7.10;1.00
3912;DHT22;1971;51.778;10.330;2022-10-23T06:29:06;6.90;1.00
3912;DHT22;1971;51.778;10.330;2022-10-23T06:31:37;7.30;1.00
3912;DHT22;1971;51.778;10.330;2022-10-23T06:34:10;7.40;1.00
3912;DHT22;1971;51.778;10.330;2022-10-23T06:36:41;7.60;1.00
3912;DHT22;1971;51.778;10.330;2022-10-23T06:39:26;8.00;1.00
3912;DHT22;1971;51.778;10.330;2022-10-23T06:42:08;7.80;1.00
3912;DHT22;1971;51.778;10.330;2022-10-23T06:44:59;7.90;1.00
3912;DHT22;1971;51.778;10.330;2022-10-23T06:47:39;8.00;1.00
3912;DHT22;1971;51.778;10.330;2022-10-23T06:50:29;8.30;1.00
3912;DHT22;1971;51.778;10.330;2022-10-23T06:53:06;8.10;1.00
3912;DHT22;1971;51.778;10.330;2022-10-23T06:55:39;8.20;1.00
3912;DHT22;1971;51.778;10.330;2022-10-23T06:58:12;8.30;1.00
3912;DHT22;1971;51.778;10.330;2022-10-23T07:00:59;8.60;1.00
3912;DHT22;1971;51.778;10.330;2022-10-23T07:03:30;8.90;12.90
3912;DHT22;1971;51.778;10.330;2022-10-23T07:06:06;9.10;22.90
3912;DHT22;1971;51.778;10.330;2022-10-23T07:08:37;9.30;32.60
3912;DHT22;1971;51.778;10.330;2022-10-23T07:11:26;9.70;51.70
3912;DHT22;1971;51.778;10.330;2022-10-23T07:14:00;10.10;76.10
3912;DHT22;1971;51.778;10.330;2022-10-23T07:16:30;10.70;96.50
3912;DHT22;1971;51.778;10.330;2022-10-23T07:19:01;11.00;96.10
3912;DHT22;1971;51.778;10.330;2022-10-23T07:21:51;11.30;79.60
3912;DHT22;1971;51.778;10.330;2022-10-23T07:24:41;11.50;40.00
3912;DHT22;1971;51.778;10.330;2022-10-23T07:27:18;11.60;5.00
3912;DHT22;1971;51.778;10.330;2022-10-23T07:29:57;11.80;1.00
3912;DHT22;1971;51.778;10.330;2022-10-23T07:32:31;11.90;1.00
3912;DHT22;1971;51.778;10.330;2022-10-23T07:35:33;12.00;1.00
3912;DHT22;1971;51.778;10.330;2022-10-23T07:38:13;12.10;1.00
3912;DHT22;1971;51.778;10.330;2022-10-23T07:40:50;12.20;1.00
3912;DHT22;1971;51.778;10.330;2022-10-23T07:43:20;12.30;1.00
3912;DHT22;1971;51.778;10.330;2022-10-23T07:45:54;12.50;1.00
3912;DHT22;1971;51.778;10.330;2022-10-23T07:48:32;12.60;1.00
3912;DHT22;1971;51.778;10.330;2022-10-23T07:51:05;12.70;1.00
3912;DHT22;1971;51.778;10.330;2022-10-23T07:53:44;12.70;1.00
3912;DHT22;1971;51.778;10.330;2022-10-23T07:56:30;12.80;1.00
3912;DHT22;1971;51.778;10.330;2022-10-23T07:59:26;12.80;1.00
3912;DHT22;1971;51.778;10.330;2022-10-23T08:02:13;12.90;1.00
3912;DHT22;1971;51.778;10.330;2022-10-23T08:04:47;13.00;1.00
3912;DHT22;1971;51.778;10.330;2022-10-23T08:07:26;13.10;1.00
3912;DHT22;1971;51.778;10.330;2022-10-23T08:09:56;13.20;1.00
3912;DHT22;1971;51.778;10.330;2022-10-23T08:12:28;13.30;1.00
3912;DHT22;1971;51.778;10.330;2022-10-23T08:14:59;13.30;1.00
3912;DHT22;1971;51.778;10.330;2022-10-23T08:17:43;13.40;1.00
3912;DHT22;1971;51.778;10.330;2022-10-23T08:20:19;13.50;1.00
3912;DHT22;1971;51.778;10.330;2022-10-23T08:22:50;13.70;1.00
3912;DHT22;1971;51.778;10.330;2022-10-23T08:25:23;13.80;1.00
3912;DHT22;1971;51.778;10.330;2022-10-23T08:27:54;14.00;1.00
3912;DHT22;1971;51.778;10.330;2022-10-23T08:30:24;14.10;1.00
3912;DHT22;1971;51.778;10.330;2022-10-23T08:32:57;14.10;1.00
3912;DHT22;1971;51.778;10.330;2022-10-23T08:35:27;14.10;1.00
3912;DHT22;1971;51.778;10.330;2022-10-23T08:37:57;14.10;1.00
3912;DHT22;1971;51.778;10.330;2022-10-23T08:40:34;14.10;1.00
3912;DHT22;1971;51.778;10.330;2022-10-23T08:43:29;14.10;1.00
3912;DHT22;1971;51.778;10.330;2022-10-23T08:46:17;14.10;1.00
3912;DHT22;1971;51.778;10.330;2022-10-23T08:49:22;14.10;1.00
3912;DHT22;1971;51.778;10.330;2022-10-23T08:51:59;14.20;1.00
3912;DHT22;1971;51.778;10.330;2022-10-23T08:54:37;14.20;1.00
3912;DHT22;1971;51.778;10.330;2022-10-23T08:57:13;14.10;1.00
3912;DHT22;1971;51.778;10.330;2022-10-23T08:59:48;14.20;1.00
3912;DHT22;1971;51.778;10.330;2022-10-23T09:02:25;14.30;1.00
3912;DHT22;1971;51.778;10.330;2022-10-23T09:04:58;14.30;1.00
3912;DHT22;1971;51.778;10.330;2022-10-23T09:07:36;14.40;1.00
3912;DHT22;1971;51.778;10.330;2022-10-23T09:10:23;14.40;1.00
3912;DHT22;1971;51.778;10.330;2022-10-23T09:12:57;14.50;1.00
3912;DHT22;1971;51.778;10.330;2022-10-23T09:15:30;14.60;1.00
3912;DHT22;1971;51.778;10.330;2022-10-23T09:18:11;14.70;1.00
3912;DHT22;1971;51.778;10.330;2022-10-23T09:20:46;14.70;1.00
3912;DHT22;1971;51.778;10.330;2022-10-23T09:23:21;14.70;1.00
3912;DHT22;1971;51.778;10.330;2022-10-23T09:25:52;14.80;99.90
3912;DHT22;1971;51.778;10.330;2022-10-23T09:28:26;14.80;99.90
3912;DHT22;1971;51.778;10.330;2022-10-23T09:31:05;14.80;99.90
3912;DHT22;1971;51.778;10.330;2022-10-23T09:33:35;15.00;99.90
3912;DHT22;1971;51.778;10.330;2022-10-23T09:36:19;15.10;99.90
3912;DHT22;1971;51.778;10.330;2022-10-23T09:38:52;15.10;99.90
3912;DHT22;1971;51.778;10.330;2022-10-23T09:41:27;15.10;99.90
3912;DHT22;1971;51.778;10.330;2022-10-23T09:44:14;15.10;99.90
3912;DHT22;1971;51.778;10.330;2022-10-23T09:46:48;15.00;99.90
3912;DHT22;1971;51.778;10.330;2022-10-23T09:49:21;15.00;99.90
3912;DHT22;1971;51.778;10.330;2022-10-23T09:51:59;15.00;99.90
3912;DHT22;1971;51.778;10.330;2022-10-23T09:54:31;15.00;99.90
3912;DHT22;1971;51.778;10.330;2022-10-23T09:57:21;14.90;99.90
3912;DHT22;1971;51.778;10.330;2022-10-23T09:59:52;14.90;99.90
3912;DHT22;1971;51.778;10.330;2022-10-23T10:02:27;14.90;99.90
3912;DHT22;1971;51.778;10.330;2022-10-23T10:05:22;14.90;99.90
3912;DHT22;1971;51.778;10.330;2022-10-23T10:07:59;14.80;99.90
3912;DHT22;1971;51.778;10.330;2022-10-23T10:10:35;14.80;99.90
3912;DHT22;1971;51.778;10.330;2022-10-23T10:13:13;15.00;99.90
3912;DHT22;1971;51.778;10.330;2022-10-23T10:15:54;15.10;99.90
3912;DHT22;1971;51.778;10.330;2022-10-23T10:18:31;15.20;99.90
3912;DHT22;1971;51.778;10.330;2022-10-23T10:21:11;15.20;99.90
3912;DHT22;1971;51.778;10.330;2022-10-23T10:23:53;15.30;99.90
3912;DHT22;1971;51.778;10.330;2022-10-23T10:26:36;15.40;99.90
3912;DHT22;1971;51.778;10.330;2022-10-23T10:29:16;15.40;99.90
3912;DHT22;1971;51.778;10.330;2022-10-23T10:32:02;15.50;99.90
3912;DHT22;1971;51.778;10.330;2022-10-23T10:34:42;15.40;99.90
3912;DHT22;1971;51.778;10.330;2022-10-23T10:37:23;15.50;99.90
3912;DHT22;1971;51.778;10.330;2022-10-23T10:40:05;15.60;99.90
3912;DHT22;1971;51.778;10.330;2022-10-23T10:42:52;15.70;99.90
3912;DHT22;1971;51.778;10.330;2022-10-23T10:45:30;15.80;99.90
3912;DHT22;1971;51.778;10.330;2022-10-23T10:48:38;15.90;99.90
3912;DHT22;1971;51.778;10.330;2022-10-23T10:51:41;16.10;99.90
3912;DHT22;1971;51.778;10.330;2022-10-23T10:54:25;16.20;99.90
3912;DHT22;1971;51.778;10.330;2022-10-23T10:57:04;16.20;99.90
3912;DHT22;1971;51.778;10.330;2022-10-23T10:59:42;16.30;99.90
3912;DHT22;1971;51.778;10.330;2022-10-23T11:02:22;16.30;99.90
3912;DHT22;1971;51.778;10.330;2022-10-23T11:05:02;16.20;99.90
3912;DHT22;1971;51.778;10.330;2022-10-23T11:07:40;16.00;99.90
3912;DHT22;1971;51.778;10.330;2022-10-23T11:10:15;16.00;99.90
3912;DHT22;1971;51.778;10.330;2022-10-23T11:12:48;16.00;99.90
3912;DHT22;1971;51.778;10.330;2022-10-23T11:15:24;15.90;99.90
3912;DHT22;1971;51.778;10.330;2022-10-23T11:17:57;16.00;99.90
3912;DHT22;1971;51.778;10.330;2022-10-23T11:20:51;16.10;99.90
3912;DHT22;1971;51.778;10.330;2022-10-23T11:23:45;16.40;99.90
3912;DHT22;1971;51.778;10.330;2022-10-23T11:26:25;16.50;99.90
3912;DHT22;1971;51.778;10.330;2022-10-23T11:29:23;16.70;99.90
3912;DHT22;1971;51.778;10.330;2022-10-23T11:32:06;16.80;99.90
3912;DHT22;1971;51.778;10.330;2022-10-23T11:35:05;17.00;99.90
3912;DHT22;1971;51.778;10.330;2022-10-23T11:37:36;16.90;99.90
3912;DHT22;1971;51.778;10.330;2022-10-23T11:40:20;16.80;99.90
3912;DHT22;1971;51.778;10.330;2022-10-23T11:42:51;16.70;99.90
3912;DHT22;1971;51.778;10.330;2022-10-23T11:45:38;16.70;99.90
3912;DHT22;1971;51.778;10.330;2022-10-23T11:48:22;16.70;99.90
3912;DHT22;1971;51.778;10.330;2022-10-23T11:50:53;16.50;99.90
3912;DHT22;1971;51.778;10.330;2022-10-23T11:53:37;16.50;99.90
3912;DHT22;1971;51.778;10.330;2022-10-23T11:56:24;16.50;99.90
3912;DHT22;1971;51.778;10.330;2022-10-23T11:58:58;16.50;99.90
3912;DHT22;1971;51.778;10.330;2022-10-23T12:01:38;16.30;99.90
3912;DHT22;1971;51.778;10.330;2022-10-23T12:04:20;16.20;99.90
3912;DHT22;1971;51.778;10.330;2022-10-23T12:06:52;16.10;99.90
3912;DHT22;1971;51.778;10.330;2022-10-23T12:09:33;16.00;99.90
3912;DHT22;1971;51.778;10.330;2022-10-23T12:12:16;16.00;99.90
3912;DHT22;1971;51.778;10.330;2022-10-23T12:14:48;16.00;99.90
3912;DHT22;1971;51.778;10.330;2022-10-23T12:17:33;16.00;99.90
3912;DHT22;1971;51.778;10.330;2022-10-23T12:20:35;15.90;99.90
3912;DHT22;1971;51.778;10.330;2022-10-23T12:23:36;16.00;99.90
3912;DHT22;1971;51.778;10.330;2022-10-23T12:26:22;16.00;99.90
3912;DHT22;1971;51.778;10.330;2022-10-23T12:29:00;16.10;99.90
3912;DHT22;1971;51.778;10.330;2022-10-23T12:31:41;16.20;99.90
3912;DHT22;1971;51.778;10.330;2022-10-23T12:34:28;16.20;99.90
3912;DHT22;1971;51.778;10.330;2022-10-23T12:37:15;16.20;99.90
3912;DHT22;1971;51.778;10.330;2022-10-23T12:39:54;16.20;99.90
3912;DHT22;1971;51.778;10.330;2022-10-23T12:42:26;16.10;99.90
3912;DHT22;1971;51.778;10.330;2022-10-23T12:44:58;16.10;99.90
3912;DHT22;1971;51.778;10.330;2022-10-23T12:47:29;16.00;99.90
3912;DHT22;1971;51.778;10.330;2022-10-23T12:50:02;16.00;99.90
3912;DHT22;1971;51.778;10.330;2022-10-23T12:52:35;16.00;99.90
3912;DHT22;1971;51.778;10.330;2022-10-23T12:55:12;16.00;99.90
3912;DHT22;1971;51.778;10.330;2022-10-23T12:57:43;16.00;99.90
3912;DHT22;1971;51.778;10.330;2022-10-23T13:00:17;15.90;99.90
3912;DHT22;1971;51.778;10.330;2022-10-23T13:02:57;15.80;99.90
3912;DHT22;1971;51.778;10.330;2022-10-23T13:05:31;15.80;99.90
3912;DHT22;1971;51.778;10.330;2022-10-23T13:08:03;15.70;99.90
3912;DHT22;1971;51.778;10.330;2022-10-23T13:10:47;15.70;99.90
3912;DHT22;1971;51.778;10.330;2022-10-23T13:13:22;15.70;99.90
3912;DHT22;1971;51.778;10.330;2022-10-23T13:15:52;15.60;99.90
3912;DHT22;1971;51.778;10.330;2022-10-23T13:18:22;15.60;99.90
3912;DHT22;1971;51.778;10.330;2022-10-23T13:20:58;15.60;99.90
3912;DHT22;1971;51.778;10.330;2022-10-23T13:23:32;15.50;99.90
3912;DHT22;1971;51.778;10.330;2022-10-23T13:26:05;15.60;99.90
3912;DHT22;1971;51.778;10.330;2022-10-23T13:28:41;15.60;99.90
3912;DHT22;1971;51.778;10.330;2022-10-23T13:31:29;15.60;99.90
3912;DHT22;1971;51.778;10.330;2022-10-23T13:34:24;15.60;99.90
3912;DHT22;1971;51.778;10.330;2022-10-23T13:37:01;15.60;99.90
3912;DHT22;1971;51.778;10.330;2022-10-23T13:39:33;15.60;99.90
3912;DHT22;1971;51.778;10.330;2022-10-23T13:42:11;15.60;99.90
3912;DHT22;1971;51.778;10.330;2022-10-23T13:44:42;15.60;99.90
3912;DHT22;1971;51.778;10.330;2022-10-23T13:47:13;15.60;99.90
3912;DHT22;1971;51.778;10.330;2022-10-23T13:49:44;15.60;99.90
3912;DHT22;1971;51.778;10.330;2022-10-23T13:52:20;15.50;99.90
3912;DHT22;1971;51.778;10.330;2022-10-23T13:54:51;15.50;99.90
3912;DHT22;1971;51.778;10.330;2022-10-23T13:57:21;15.50;99.90
3912;DHT22;1971;51.778;10.330;2022-10-23T13:59:52;15.50;99.90
3912;DHT22;1971;51.778;10.330;2022-10-23T14:02:22;15.50;99.90
3912;DHT22;1971;51.778;10.330;2022-10-23T14:04:53;15.40;99.90
3912;DHT22;1971;51.778;10.330;2022-10-23T14:07:25;15.40;99.90
3912;DHT22;1971;51.778;10.330;2022-10-23T14:09:56;15.30;99.90
3912;DHT22;1971;51.778;10.330;2022-10-23T14:12:26;15.30;99.90
3912;DHT22;1971;51.778;10.330;2022-10-23T14:14:56;15.30;99.90
3912;DHT22;1971;51.778;10.330;2022-10-23T14:17:26;15.30;99.90
3912;DHT22;1971;51.778;10.330;2022-10-23T14:19:57;15.40;99.90
3912;DHT22;1971;51.778;10.330;2022-10-23T14:22:34;15.30;99.90
3912;DHT22;1971;51.778;10.330;2022-10-23T14:25:05;15.30;99.90
3912;DHT22;1971;51.778;10.330;2022-10-23T14:27:35;15.30;99.90
3912;DHT22;1971;51.778;10.330;2022-10-23T14:30:09;15.30;99.90
3912;DHT22;1971;51.778;10.330;2022-10-23T14:32:40;15.30;99.90
3912;DHT22;1971;51.778;10.330;2022-10-23T14:35:12;15.30;99.90
3912;DHT22;1971;51.778;10.330;2022-10-23T14:37:44;15.30;99.90
3912;DHT22;1971;51.778;10.330;2022-10-23T14:40:16;15.30;99.90
3912;DHT22;1971;51.778;10.330;2022-10-23T14:42:46;15.20;99.90
3912;DHT22;1971;51.778;10.330;2022-10-23T14:45:16;15.30;99.90
3912;DHT22;1971;51.778;10.330;2022-10-23T14:47:47;15.30;99.90
3912;DHT22;1971;51.778;10.330;2022-10-23T14:50:18;15.40;99.90
3912;DHT22;1971;51.778;10.330;2022-10-23T14:52:52;15.50;99.90
3912;DHT22;1971;51.778;10.330;2022-10-23T14:55:23;15.50;99.90
3912;DHT22;1971;51.778;10.330;2022-10-23T14:57:53;15.40;99.90
3912;DHT22;1971;51.778;10.330;2022-10-23T15:00:24;15.40;99.90
3912;DHT22;1971;51.778;10.330;2022-10-23T15:02:54;15.40;99.90
3912;DHT22;1971;51.778;10.330;2022-10-23T15:05:24;15.60;94.30
3912;DHT22;1971;51.778;10.330;2022-10-23T15:07:57;15.70;86.00
3912;DHT22;1971;51.778;10.330;2022-10-23T15:10:28;15.70;82.10
3912;DHT22;1971;51.778;10.330;2022-10-23T15:12:58;15.80;78.70
3912;DHT22;1971;51.778;10.330;2022-10-23T15:15:28;15.80;65.90
3912;DHT22;1971;51.778;10.330;2022-10-23T15:17:59;15.80;60.20
3912;DHT22;1971;51.778;10.330;2022-10-23T15:20:29;15.80;59.40
3912;DHT22;1971;51.778;10.330;2022-10-23T15:23:02;15.80;46.40
3912;DHT22;1971;51.778;10.330;2022-10-23T15:25:35;15.80;47.00
3912;DHT22;1971;51.778;10.330;2022-10-23T15:28:07;15.60;54.10
3912;DHT22;1971;51.778;10.330;2022-10-23T15:30:37;15.60;51.80
3912;DHT22;1971;51.778;10.330;2022-10-23T15:33:09;15.70;35.60
3912;DHT22;1971;51.778;10.330;2022-10-23T15:35:45;15.60;42.40
3912;DHT22;1971;51.778;10.330;2022-10-23T15:38:19;15.50;40.80
3912;DHT22;1971;51.778;10.330;2022-10-23T15:40:49;15.40;55.20
3912;DHT22;1971;51.778;10.330;2022-10-23T15:43:23;15.30;60.80
3912;DHT22;1971;51.778;10.330;2022-10-23T15:45:54;15.40;42.80
3912;DHT22;1971;51.778;10.330;2022-10-23T15:48:24;15.40;44.00
3912;DHT22;1971;51.778;10.330;2022-10-23T15:50:54;15.30;62.10
3912;DHT22;1971;51.778;10.330;2022-10-23T15:53:28;15.20;67.40
3912;DHT22;1971;51.778;10.330;2022-10-23T15:55:58;15.30;56.80
3912;DHT22;1971;51.778;10.330;2022-10-23T15:58:28;15.10;69.30
3912;DHT22;1971;51.778;10.330;2022-10-23T16:01:01;15.10;52.50
3912;DHT22;1971;51.778;10.330;2022-10-23T16:03:34;15.10;64.20
3912;DHT22;1971;51.778;10.330;2022-10-23T16:06:06;15.00;70.60
3912;DHT22;1971;51.778;10.330;2022-10-23T16:08:39;14.90;78.80
3912;DHT22;1971;51.778;10.330;2022-10-23T16:11:15;15.00;54.80
3912;DHT22;1971;51.778;10.330;2022-10-23T16:13:46;14.90;66.20
3912;DHT22;1971;51.778;10.330;2022-10-23T16:16:17;14.90;70.80
3912;DHT22;1971;51.778;10.330;2022-10-23T16:18:50;14.90;61.10
3912;DHT22;1971;51.778;10.330;2022-10-23T16:21:22;15.00;66.10
3912;DHT22;1971;51.778;10.330;2022-10-23T16:23:57;14.90;67.20
3912;DHT22;1971;51.778;10.330;2022-10-23T16:26:28;14.90;75.80
3912;DHT22;1971;51.778;10.330;2022-10-23T16:29:02;14.80;81.20
3912;DHT22;1971;51.778;10.330;2022-10-23T16:31:32;14.80;75.20
3912;DHT22;1971;51.778;10.330;2022-10-23T16:34:04;14.80;75.50
3912;DHT22;1971;51.778;10.330;2022-10-23T16:36:34;14.80;69.40
3912;DHT22;1971;51.778;10.330;2022-10-23T16:39:23;14.80;73.10
3912;DHT22;1971;51.778;10.330;2022-10-23T16:42:24;14.80;57.90
3912;DHT22;1971;51.778;10.330;2022-10-23T16:45:22;14.90;48.20
3912;DHT22;1971;51.778;10.330;2022-10-23T16:47:52;14.90;50.20
3912;DHT22;1971;51.778;10.330;2022-10-23T16:50:22;14.90;45.20
3912;DHT22;1971;51.778;10.330;2022-10-23T16:52:53;14.80;49.80
3912;DHT22;1971;51.778;10.330;2022-10-23T16:55:26;14.80;46.20
3912;DHT22;1971;51.778;10.330;2022-10-23T16:57:56;14.90;38.10
3912;DHT22;1971;51.778;10.330;2022-10-23T17:00:27;14.90;40.90